createdAt,value
2022-09-14T00:02:32.693Z,99228.41
2022-09-14T00:06:04.187Z,99226.16
2022-09-14T00:09:06.731Z,99230.19
2022-09-14T00:11:51.204Z,99233.50
2022-09-14T00:14:27.423Z,99236.85
2022-09-14T00:17:03.538Z,99230.20
2022-09-14T00:20:03.550Z,99227.38
2022-09-14T00:22:31.309Z,99232.98
2022-09-14T00:25:08.109Z,99227.53
2022-09-14T00:27:44.579Z,99223.98
2022-09-14T00:30:21.405Z,99218.56
2022-09-14T00:32:57.408Z,99217.77
2022-09-14T00:38:27.190Z,99212.95
2022-09-14T00:41:05.307Z,99215.73
2022-09-14T00:44:05.437Z,99209.73
2022-09-14T00:47:06.521Z,99214.60
2022-09-14T00:50:07.022Z,99208.02
2022-09-14T00:53:07.509Z,99207.15
2022-09-14T00:55:35.312Z,99219.82
2022-09-14T00:58:20.856Z,99221.20
2022-09-14T01:00:59.174Z,99220.01
2022-09-14T01:06:47.192Z,99212.90
2022-09-14T01:09:26.086Z,99208.14
2022-09-14T01:12:20.448Z,99209.57
2022-09-14T01:15:00.593Z,99210.11
2022-09-14T01:17:48.969Z,99208.48
2022-09-14T01:21:06.489Z,99209.77
2022-09-14T01:24:07.292Z,99211.89
2022-09-14T01:27:07.503Z,99211.46
2022-09-14T01:30:16.662Z,99211.83
2022-09-14T01:33:12.440Z,99213.54
2022-09-14T01:35:55.511Z,99210.84
2022-09-14T01:38:51.797Z,99209.19
2022-09-14T01:41:31.432Z,99210.13
2022-09-14T01:44:21.417Z,99206.84
2022-09-14T01:47:03.707Z,99211.27
2022-09-14T01:50:09.137Z,99203.85
2022-09-14T01:53:09.125Z,99201.06
2022-09-14T01:56:21.627Z,99195.09
2022-09-14T01:59:05.932Z,99195.08
2022-09-14T02:02:18.570Z,99189.34
2022-09-14T02:05:01.163Z,99184.27
2022-09-14T02:07:38.044Z,99182.64
2022-09-14T02:10:29.257Z,99182.55
2022-09-14T02:13:07.215Z,99174.75
2022-09-14T02:15:36.284Z,99167.61
2022-09-14T02:18:04.362Z,99166.41
2022-09-14T02:20:39.817Z,99163.84
2022-09-14T02:23:07.733Z,99163.63
2022-09-14T02:25:36.495Z,99161.79
2022-09-14T02:28:04.308Z,99167.73
2022-09-14T02:30:49.403Z,99170.38
2022-09-14T02:33:40.781Z,99167.69
2022-09-14T02:36:16.653Z,99168.19
2022-09-14T02:38:57.438Z,99169.14
2022-09-14T02:41:59.107Z,99168.50
2022-09-14T02:44:57.340Z,99164.79
2022-09-14T02:48:02.517Z,99160.36
2022-09-14T02:51:09.362Z,99162.58
2022-09-14T02:54:38.796Z,99170.70
2022-09-14T02:57:15.535Z,99165.77
2022-09-14T02:59:54.030Z,99161.50
2022-09-14T03:02:30.353Z,99161.80
2022-09-14T03:05:06.655Z,99163.88
2022-09-14T03:10:33.255Z,99163.95
2022-09-14T03:13:09.401Z,99165.33
2022-09-14T03:16:10.572Z,99165.66
2022-09-14T03:19:12.378Z,99164.90
2022-09-14T03:22:11.962Z,99165.95
2022-09-14T03:25:12.633Z,99169.92
2022-09-14T03:28:13.110Z,99169.27
2022-09-14T03:31:13.283Z,99169.36
2022-09-14T03:33:41.538Z,99178.30
2022-09-14T03:36:29.844Z,99171.05
2022-09-14T03:39:06.626Z,99166.98
2022-09-14T03:41:42.396Z,99168.05
2022-09-14T03:44:32.422Z,99162.52
2022-09-14T03:47:08.729Z,99165.27
2022-09-14T03:50:10.034Z,99170.00
2022-09-14T03:53:10.086Z,99171.52
2022-09-14T03:56:17.786Z,99168.32
2022-09-14T03:58:54.520Z,99172.62
2022-09-14T04:01:30.436Z,99176.70
2022-09-14T04:04:07.930Z,99171.83
2022-09-14T04:09:35.697Z,99167.07
2022-09-14T04:12:12.716Z,99156.36
2022-09-14T04:15:13.477Z,99155.83
2022-09-14T04:17:42.142Z,99152.70
2022-09-14T04:20:18.508Z,99150.98
2022-09-14T04:22:56.534Z,99145.02
2022-09-14T04:25:32.436Z,99144.73
2022-09-14T04:28:20.030Z,99139.52
2022-09-14T04:31:01.059Z,99141.45
2022-09-14T04:33:38.488Z,99142.80
2022-09-14T04:36:16.168Z,99146.42
2022-09-14T04:39:16.705Z,99148.95
2022-09-14T04:42:15.909Z,99152.78
2022-09-14T04:44:43.489Z,99149.16
2022-09-14T04:47:19.432Z,99150.68
2022-09-14T04:52:37.505Z,99139.86
2022-09-14T04:55:13.646Z,99134.78
2022-09-14T04:58:14.193Z,99139.42
2022-09-14T05:01:15.187Z,99146.29
2022-09-14T05:04:15.344Z,99151.53
2022-09-14T05:07:15.059Z,99149.34
2022-09-14T05:10:15.138Z,99151.74
2022-09-14T05:12:43.025Z,99151.68
2022-09-14T05:16:42.254Z,99152.52
2022-09-14T05:19:13.985Z,99152.59
2022-09-14T05:22:15.508Z,99147.41
2022-09-14T05:24:51.645Z,99144.91
2022-09-14T05:27:27.681Z,99145.42
2022-09-14T05:30:03.875Z,99148.95
2022-09-14T05:32:40.654Z,99148.41
2022-09-14T05:35:16.767Z,99146.85
2022-09-14T05:38:17.386Z,99146.15
2022-09-14T05:41:17.657Z,99140.52
2022-09-14T05:44:17.774Z,99145.52
2022-09-14T05:46:45.585Z,99141.64
2022-09-14T05:49:21.619Z,99138.73
2022-09-14T05:51:59.569Z,99143.98
2022-09-14T05:54:35.584Z,99149.14
2022-09-14T05:57:11.629Z,99149.52
2022-09-14T05:59:47.637Z,99146.20
2022-09-14T06:02:23.772Z,99144.16
2022-09-14T06:05:00.648Z,99146.27
2022-09-14T06:07:34.603Z,99146.98
2022-09-14T06:13:17.388Z,99141.35
2022-09-14T06:16:18.892Z,99140.50
2022-09-14T06:19:19.797Z,99140.66
2022-09-14T06:22:20.068Z,99138.57
2022-09-14T06:25:19.850Z,99142.52
2022-09-14T06:28:20.213Z,99142.19
2022-09-14T06:31:22.603Z,99146.55
2022-09-14T06:36:42.178Z,99148.93
2022-09-14T06:39:18.222Z,99152.23
2022-09-14T06:42:18.028Z,99154.63
2022-09-14T06:45:18.964Z,99156.52
2022-09-14T06:48:19.117Z,99160.48
2022-09-14T06:51:20.185Z,99161.73
2022-09-14T06:54:19.880Z,99164.64
2022-09-14T06:56:47.705Z,99165.77
2022-09-14T07:01:19.890Z,99167.55
2022-09-14T07:04:20.177Z,99167.77
2022-09-14T07:07:20.318Z,99169.77
2022-09-14T07:10:20.397Z,99179.92
2022-09-14T07:13:20.364Z,99185.68
2022-09-14T07:16:20.683Z,99189.41
2022-09-14T07:19:21.358Z,99192.64
2022-09-14T07:21:50.310Z,99191.52
2022-09-14T07:24:26.474Z,99185.96
2022-09-14T07:27:02.779Z,99181.98
2022-09-14T07:29:39.408Z,99179.64
2022-09-14T07:32:15.512Z,99184.25
2022-09-14T07:34:51.535Z,99179.56
2022-09-14T07:37:27.476Z,99178.72
2022-09-14T07:40:03.956Z,99178.07
2022-09-14T07:42:38.722Z,99175.13
2022-09-14T07:47:49.706Z,99177.69
2022-09-14T07:50:27.055Z,99176.45
2022-09-14T07:53:05.171Z,99174.81
2022-09-14T07:55:41.660Z,99174.80
2022-09-14T07:58:09.411Z,99182.35
2022-09-14T08:03:10.711Z,99185.94
2022-09-14T08:05:38.507Z,99189.64
2022-09-14T08:08:15.141Z,99196.98
2022-09-14T08:10:51.728Z,99201.66
2022-09-14T08:13:19.859Z,99206.89
2022-09-14T08:18:11.952Z,99185.70
2022-09-14T08:20:47.998Z,99180.51
2022-09-14T08:23:25.335Z,99178.40
2022-09-14T08:26:26.311Z,99181.41
2022-09-14T08:29:26.166Z,99189.95
2022-09-14T08:32:02.178Z,99195.86
2022-09-14T08:34:37.957Z,99202.23
2022-09-14T08:37:14.195Z,99203.84
2022-09-14T08:39:51.599Z,99196.01
2022-09-14T08:45:27.564Z,99183.44
2022-09-14T08:47:55.632Z,99180.23
2022-09-14T08:50:46.408Z,99184.63
2022-09-14T08:53:22.782Z,99189.98
2022-09-14T08:56:13.735Z,99186.33
2022-09-14T08:59:09.167Z,99180.70
2022-09-14T09:01:49.550Z,99184.55
2022-09-14T09:04:46.750Z,99184.79
2022-09-14T09:07:36.994Z,99177.33
2022-09-14T09:10:13.989Z,99178.14
2022-09-14T09:13:19.631Z,99177.08
2022-09-14T09:18:48.143Z,99169.84
2022-09-14T09:21:29.253Z,99173.22
2022-09-14T09:25:08.603Z,99168.21
2022-09-14T09:27:44.531Z,99168.65
2022-09-14T09:30:20.621Z,99166.16
2022-09-14T09:32:57.027Z,99160.69
2022-09-14T09:35:46.479Z,99164.61
2022-09-14T09:38:32.425Z,99172.84
2022-09-14T09:41:07.523Z,99173.45
2022-09-14T09:43:48.810Z,99170.52
2022-09-14T09:46:17.579Z,99172.16
2022-09-14T09:48:54.205Z,99168.49
2022-09-14T09:51:32.005Z,99163.89
2022-09-14T09:54:16.481Z,99160.55
2022-09-14T09:56:55.213Z,99159.27
2022-09-14T09:59:38.055Z,99163.00
2022-09-14T10:02:22.746Z,99167.75
2022-09-14T10:05:22.710Z,99171.23
2022-09-14T10:10:51.477Z,99170.72
2022-09-14T10:13:38.819Z,99167.90
2022-09-14T10:16:17.298Z,99165.79
2022-09-14T10:18:53.990Z,99164.30
2022-09-14T10:21:24.320Z,99163.86
2022-09-14T10:24:33.308Z,99165.39
2022-09-14T10:27:38.315Z,99160.58
2022-09-14T10:30:25.797Z,99164.70
2022-09-14T10:33:22.970Z,99162.73
2022-09-14T10:36:29.676Z,99164.33
2022-09-14T10:39:32.623Z,99162.81
2022-09-14T10:42:35.683Z,99160.85
2022-09-14T10:45:15.515Z,99163.26
2022-09-14T10:47:56.131Z,99161.52
2022-09-14T10:50:50.166Z,99157.48
2022-09-14T10:53:32.363Z,99157.05
2022-09-14T10:56:44.469Z,99159.87
2022-09-14T10:59:36.929Z,99157.69
2022-09-14T11:02:50.982Z,99159.54
2022-09-14T11:05:22.838Z,99159.40
2022-09-14T11:07:59.534Z,99159.41
2022-09-14T11:11:00.771Z,99155.29
2022-09-14T11:13:58.020Z,99155.41
2022-09-14T11:16:34.235Z,99158.48
2022-09-14T11:19:40.501Z,99152.20
2022-09-14T11:22:28.681Z,99154.39
2022-09-14T11:25:59.480Z,99153.77
2022-09-14T11:28:49.983Z,99154.48
2022-09-14T11:31:40.080Z,99154.44
2022-09-14T11:34:24.606Z,99152.52
2022-09-14T11:40:01.999Z,99145.81
2022-09-14T11:43:01.385Z,99142.86
2022-09-14T11:45:44.999Z,99130.30
2022-09-14T11:48:48.063Z,99126.55
2022-09-14T11:51:31.064Z,99121.27
2022-09-14T11:54:31.573Z,99123.33
2022-09-14T11:57:32.354Z,99132.23
2022-09-14T12:00:50.817Z,99129.23
2022-09-14T12:04:04.679Z,99134.73
2022-09-14T12:06:56.689Z,99138.95
2022-09-14T12:09:39.822Z,99131.95
2022-09-14T12:12:31.279Z,99126.86
2022-09-14T12:15:41.010Z,99126.33
2022-09-14T12:18:22.750Z,99127.27
2022-09-14T12:21:22.981Z,99124.40
2022-09-14T12:23:57.921Z,99126.10
2022-09-14T12:29:32.767Z,99120.17
2022-09-14T12:32:43.309Z,99122.41
2022-09-14T12:35:45.122Z,99116.69
2022-09-14T12:38:30.798Z,99116.52
2022-09-14T12:41:36.598Z,99123.02
2022-09-14T12:44:37.535Z,99119.51
2022-09-14T12:47:37.890Z,99116.71
2022-09-14T12:50:34.583Z,99122.91
2022-09-14T12:53:23.425Z,99119.92
2022-09-14T12:56:03.761Z,99118.50
2022-09-14T12:58:52.131Z,99114.55
2022-09-14T13:01:34.370Z,99113.30
2022-09-14T13:04:34.944Z,99112.03
2022-09-14T13:07:36.315Z,99113.81
2022-09-14T13:10:37.068Z,99118.11
2022-09-14T13:13:34.230Z,99115.79
2022-09-14T13:16:04.430Z,99114.09
2022-09-14T13:18:40.569Z,99118.64
2022-09-14T13:21:45.826Z,99121.05
2022-09-14T13:24:31.738Z,99124.02
2022-09-14T13:27:01.210Z,99121.86
2022-09-14T13:29:37.545Z,99113.77
2022-09-14T13:32:44.174Z,99108.16
2022-09-14T13:35:25.365Z,99103.67
2022-09-14T13:38:29.746Z,99100.92
2022-09-14T13:41:28.400Z,99097.88
2022-09-14T13:44:06.106Z,99098.55
2022-09-14T13:46:42.761Z,99100.14
2022-09-14T13:49:21.610Z,99095.65
2022-09-14T13:52:59.978Z,99096.02
2022-09-14T13:55:31.464Z,99090.30
2022-09-14T13:58:04.954Z,99084.48
2022-09-14T14:02:32.255Z,99084.82
2022-09-14T14:05:29.182Z,99087.36
2022-09-14T14:08:28.175Z,99084.27
2022-09-14T14:11:06.435Z,99082.92
2022-09-14T14:13:42.302Z,99077.74
2022-09-14T14:16:42.564Z,99073.66
2022-09-14T14:19:43.799Z,99070.98
2022-09-14T14:22:54.683Z,99067.34
2022-09-14T14:28:22.805Z,99066.52
2022-09-14T14:31:07.729Z,99070.38
2022-09-14T14:33:50.985Z,99073.06
2022-09-14T14:36:28.502Z,99078.23
2022-09-14T14:38:57.371Z,99080.30
2022-09-14T14:43:42.828Z,99078.50
2022-09-14T14:46:42.934Z,99081.61
2022-09-14T14:49:43.050Z,99078.67
2022-09-14T14:52:11.613Z,99076.79
2022-09-14T14:54:48.191Z,99072.88
2022-09-14T14:57:25.852Z,99070.30
2022-09-14T15:00:02.305Z,99069.33
2022-09-14T15:02:39.057Z,99072.39
2022-09-14T15:05:27.245Z,99067.23
2022-09-14T15:08:04.003Z,99064.98
2022-09-14T15:10:40.833Z,99061.27
2022-09-14T15:13:41.045Z,99053.92
2022-09-14T15:16:41.117Z,99054.40
2022-09-14T15:19:42.197Z,99052.27
2022-09-14T15:22:42.493Z,99047.30
2022-09-14T15:25:11.749Z,99041.17
2022-09-14T15:29:32.280Z,99044.55
2022-09-14T15:32:08.630Z,99040.44
2022-09-14T15:34:45.580Z,99036.84
2022-09-14T15:37:46.531Z,99038.61
2022-09-14T15:40:14.491Z,99041.91
2022-09-14T15:43:00.290Z,99044.90
2022-09-14T15:45:36.609Z,99046.09
2022-09-14T15:51:10.368Z,99040.34
2022-09-14T15:53:47.757Z,99038.81
2022-09-14T15:56:50.951Z,99032.33
2022-09-14T15:59:28.592Z,99034.15
2022-09-14T16:02:04.730Z,99030.23
2022-09-14T16:04:40.492Z,99029.21
2022-09-14T16:07:16.600Z,99028.64
2022-09-14T16:10:30.381Z,99029.56
2022-09-14T16:13:07.302Z,99031.38
2022-09-14T16:15:44.258Z,99034.01
2022-09-14T16:18:44.419Z,99034.56
2022-09-14T16:21:15.392Z,99029.48
2022-09-14T16:25:41.966Z,99031.02
2022-09-14T16:31:12.044Z,99027.11
2022-09-14T16:33:51.182Z,99024.27
2022-09-14T16:36:31.415Z,99025.58
2022-09-14T16:39:11.977Z,99027.77
2022-09-14T16:41:48.587Z,99026.81
2022-09-14T16:44:49.231Z,99023.54
2022-09-14T16:47:48.997Z,99016.88
2022-09-14T16:50:52.377Z,99011.77
2022-09-14T16:53:33.473Z,99009.31
2022-09-14T16:56:09.202Z,99012.95
2022-09-14T17:00:15.131Z,99018.80
2022-09-14T17:02:52.365Z,99022.67
2022-09-14T17:05:31.020Z,99029.95
2022-09-14T17:08:06.914Z,99031.73
2022-09-14T17:10:37.862Z,99032.42
2022-09-14T17:15:44.006Z,99031.85
2022-09-14T17:18:11.752Z,99033.52
2022-09-14T17:20:59.882Z,99031.09
2022-09-14T17:23:36.610Z,99032.64
2022-09-14T17:26:06.385Z,99029.51
2022-09-14T17:28:47.367Z,99026.95
2022-09-14T17:31:48.051Z,99029.90
2022-09-14T17:34:47.969Z,99028.42
2022-09-14T17:37:15.765Z,99031.13
2022-09-14T17:39:52.640Z,99031.73
2022-09-14T17:42:32.005Z,99039.33
2022-09-14T17:45:08.680Z,99035.27
2022-09-14T17:47:45.986Z,99038.23
2022-09-14T17:50:13.772Z,99036.66
2022-09-14T17:52:51.048Z,99038.77
2022-09-14T17:55:19.247Z,99038.08
2022-09-14T17:57:46.941Z,99030.39
2022-09-14T18:00:15.249Z,99032.19
2022-09-14T18:02:52.349Z,99032.24
2022-09-14T18:05:20.874Z,99031.14
2022-09-14T18:07:49.635Z,99034.23
2022-09-14T18:10:18.737Z,99032.79
2022-09-14T18:12:54.972Z,99037.13
2022-09-14T18:15:31.315Z,99037.17
2022-09-14T18:18:07.929Z,99040.62
2022-09-14T18:20:44.006Z,99035.09
2022-09-14T18:23:19.921Z,99038.11
2022-09-14T18:25:56.455Z,99037.34
2022-09-14T18:28:36.659Z,99043.42
2022-09-14T18:31:10.914Z,99045.02
2022-09-14T18:35:24.111Z,99049.02
2022-09-14T18:38:00.933Z,99039.84
2022-09-14T18:40:38.395Z,99037.54
2022-09-14T18:43:16.819Z,99041.72
2022-09-14T18:45:44.953Z,99041.36
2022-09-14T18:51:04.557Z,99023.25
2022-09-14T18:53:31.324Z,99012.65
2022-09-14T18:56:11.317Z,99016.36
2022-09-14T18:58:40.843Z,99016.83
2022-09-14T19:01:07.875Z,99013.91
2022-09-14T19:03:42.965Z,99012.05
2022-09-14T19:06:18.573Z,99013.14
2022-09-14T19:08:54.866Z,99007.22
2022-09-14T19:11:23.087Z,99004.57
2022-09-14T19:13:59.789Z,99000.67
2022-09-14T19:16:36.783Z,99003.30
2022-09-14T19:19:13.963Z,98999.14
2022-09-14T19:21:50.178Z,99000.42
2022-09-14T19:24:17.200Z,99004.55
2022-09-14T19:26:52.432Z,99007.63
2022-09-14T19:29:51.844Z,98999.95
2022-09-14T19:32:50.771Z,99007.48
2022-09-14T19:35:17.189Z,99006.50
2022-09-14T19:37:52.261Z,99010.98
2022-09-14T19:40:36.851Z,99012.39
2022-09-14T19:43:03.212Z,99007.45
2022-09-14T19:47:42.610Z,98999.79
2022-09-14T19:50:18.878Z,99002.62
2022-09-14T19:52:55.707Z,99001.46
2022-09-14T19:55:55.820Z,98996.50
2022-09-14T19:58:26.175Z,98993.70
2022-09-14T20:01:13.672Z,98984.19
2022-09-14T20:03:50.392Z,98981.20
2022-09-14T20:06:47.192Z,98981.94
2022-09-14T20:09:24.054Z,98987.33
2022-09-14T20:12:01.157Z,98993.19
2022-09-14T20:14:39.852Z,98990.39
2022-09-14T20:17:15.880Z,98983.63
2022-09-14T20:19:51.893Z,98985.41
2022-09-14T20:22:19.776Z,98974.09
2022-09-14T20:26:56.828Z,98973.34
2022-09-14T20:29:35.364Z,98969.05
2022-09-14T20:32:12.430Z,98973.16
2022-09-14T20:34:48.192Z,98977.96
2022-09-14T20:37:15.893Z,98979.45
2022-09-14T20:41:50.221Z,98980.98
2022-09-14T20:44:26.524Z,98978.56
2022-09-14T20:47:03.350Z,98975.73
2022-09-14T20:49:39.332Z,98980.48
2022-09-14T20:52:15.301Z,98986.00
2022-09-14T20:54:51.333Z,98982.70
2022-09-14T20:57:27.315Z,98975.52
2022-09-14T21:00:03.629Z,98971.77
2022-09-14T21:02:40.862Z,98974.91
2022-09-14T21:05:09.026Z,98987.14
2022-09-14T21:07:55.998Z,98979.23
2022-09-14T21:10:56.018Z,98975.20
2022-09-14T21:13:56.690Z,98975.71
2022-09-14T21:16:46.162Z,98969.88
2022-09-14T21:19:25.106Z,98971.06
2022-09-14T21:22:01.404Z,98971.52
2022-09-14T21:25:02.094Z,98976.73
2022-09-14T21:32:27.306Z,98968.73
2022-09-14T21:35:04.321Z,98963.41
2022-09-14T21:38:03.851Z,98962.92
2022-09-14T21:41:05.550Z,98953.58
2022-09-14T21:43:44.741Z,98958.63
2022-09-14T21:46:21.965Z,98957.35
2022-09-14T21:48:58.230Z,98958.27
2022-09-14T21:51:59.292Z,98958.20
2022-09-14T21:55:00.012Z,98957.98
2022-09-14T21:57:59.775Z,98955.42
2022-09-14T22:01:01.064Z,98955.38
2022-09-14T22:04:02.364Z,98949.48
2022-09-14T22:06:31.481Z,98942.58
2022-09-14T22:10:51.032Z,98938.11
2022-09-14T22:13:27.917Z,98936.45
2022-09-14T22:16:11.926Z,98933.05
2022-09-14T22:18:50.823Z,98931.09
2022-09-14T22:21:19.099Z,98923.11
2022-09-14T22:25:53.627Z,98928.15
2022-09-14T22:28:30.221Z,98924.81
2022-09-14T22:31:07.417Z,98921.39
2022-09-14T22:33:46.212Z,98915.14
2022-09-14T22:36:17.604Z,98911.09
2022-09-14T22:38:46.668Z,98909.29
2022-09-14T22:41:26.149Z,98906.55
2022-09-14T22:44:04.758Z,98903.81
2022-09-14T22:46:33.046Z,98895.04
2022-09-14T22:49:00.930Z,98894.73
2022-09-14T22:51:29.502Z,98892.48
2022-09-14T22:53:57.900Z,98890.95
2022-09-14T22:56:37.019Z,98889.45
2022-09-14T22:59:07.084Z,98883.17
2022-09-14T23:01:43.523Z,98884.29
2022-09-14T23:04:12.831Z,98879.67
2022-09-14T23:06:45.847Z,98873.48
2022-09-14T23:09:16.241Z,98870.21
2022-09-14T23:11:44.685Z,98870.70
2022-09-14T23:14:22.199Z,98864.70
2022-09-14T23:16:58.477Z,98866.72
2022-09-14T23:19:34.304Z,98868.09
2022-09-14T23:22:11.091Z,98868.53
2022-09-14T23:24:48.132Z,98867.25
2022-09-14T23:27:24.404Z,98862.83
2022-09-14T23:30:00.479Z,98865.56
2022-09-14T23:32:36.346Z,98863.75
2022-09-14T23:35:26.769Z,98863.66
2022-09-14T23:38:03.314Z,98860.02
2022-09-14T23:40:31.304Z,98856.91
2022-09-14T23:43:07.497Z,98853.75
2022-09-14T23:46:07.265Z,98856.85
2022-09-14T23:48:44.043Z,98857.33
2022-09-14T23:51:12.164Z,98860.55
2022-09-14T23:56:09.332Z,98858.40
2022-09-14T23:59:09.908Z,98854.66
